sensor_id;sensor_type;location;lat;lon;timestamp;pressure;altitude;pressure_sealevel;temperature;humidity
4767;BME280;2397;53.576;9.746;2023-02-17T00:01:15;101553.97;;;6.71;100.00
4767;BME280;2397;53.576;9.746;2023-02-17T00:03:42;101552.13;;;6.68;100.00
4767;BME280;2397;53.576;9.746;2023-02-17T00:06:15;101560.94;;;6.74;100.00
4767;BME280;2397;53.576;9.746;2023-02-17T00:08:42;101553.31;;;6.75;100.00
4767;BME280;2397;53.576;9.746;2023-02-17T00:11:08;101548.28;;;6.78;100.00
4767;BME280;2397;53.576;9.746;2023-02-17T00:13:35;101552.53;;;6.78;100.00
4767;BME280;2397;53.576;9.746;2023-02-17T00:16:10;101550.91;;;6.80;100.00
4767;BME280;2397;53.576;9.746;2023-02-17T00:18:37;101547.50;;;6.81;100.00
4767;BME280;2397;53.576;9.746;2023-02-17T00:21:15;101549.28;;;6.82;100.00
4767;BME280;2397;53.576;9.746;2023-02-17T00:23:42;101547.50;;;6.81;100.00
4767;BME280;2397;53.576;9.746;2023-02-17T00:26:09;101545.75;;;6.80;100.00
4767;BME280;2397;53.576;9.746;2023-02-17T00:28:36;101540.00;;;6.85;100.00
4767;BME280;2397;53.576;9.746;2023-02-17T00:31:12;101539.84;;;6.82;100.00
4767;BME280;2397;53.576;9.746;2023-02-17T00:33:39;101532.28;;;6.85;100.00
4767;BME280;2397;53.576;9.746;2023-02-17T00:36:10;101533.94;;;6.85;100.00
4767;BME280;2397;53.576;9.746;2023-02-17T00:38:37;101533.94;;;6.85;100.00
4767;BME280;2397;53.576;9.746;2023-02-17T00:41:03;101533.03;;;6.83;100.00
4767;BME280;2397;53.576;9.746;2023-02-17T00:43:30;101539.84;;;6.82;100.00
4767;BME280;2397;53.576;9.746;2023-02-17T00:45:56;101538.16;;;6.83;100.00
4767;BME280;2397;53.576;9.746;2023-02-17T00:48:23;101533.88;;;6.83;100.00
4767;BME280;2397;53.576;9.746;2023-02-17T00:50:49;101528.81;;;6.85;100.00
4767;BME280;2397;53.576;9.746;2023-02-17T00:53:16;101528.06;;;6.88;100.00
4767;BME280;2397;53.576;9.746;2023-02-17T00:55:42;101533.22;;;6.88;100.00
4767;BME280;2397;53.576;9.746;2023-02-17T00:58:08;101524.75;;;6.90;100.00
4767;BME280;2397;53.576;9.746;2023-02-17T01:00:35;101527.31;;;6.90;100.00
4767;BME280;2397;53.576;9.746;2023-02-17T01:03:01;101528.13;;;6.89;100.00
4767;BME280;2397;53.576;9.746;2023-02-17T01:05:28;101525.59;;;6.91;100.00
4767;BME280;2397;53.576;9.746;2023-02-17T01:07:54;101523.09;;;6.92;100.00
4767;BME280;2397;53.576;9.746;2023-02-17T01:10:21;101516.41;;;6.96;100.00
4767;BME280;2397;53.576;9.746;2023-02-17T01:12:47;101512.88;;;6.94;100.00
4767;BME280;2397;53.576;9.746;2023-02-17T01:15:14;101508.03;;;7.01;100.00
4767;BME280;2397;53.576;9.746;2023-02-17T01:17:40;101502.75;;;6.98;100.00
4767;BME280;2397;53.576;9.746;2023-02-17T01:20:07;101498.28;;;6.94;100.00
4767;BME280;2397;53.576;9.746;2023-02-17T01:22:33;101495.03;;;6.98;100.00
4767;BME280;2397;53.576;9.746;2023-02-17T01:24:59;101491.72;;;7.01;100.00
4767;BME280;2397;53.576;9.746;2023-02-17T01:27:26;101491.53;;;6.96;100.00
4767;BME280;2397;53.576;9.746;2023-02-17T01:29:53;101485.63;;;6.99;100.00
4767;BME280;2397;53.576;9.746;2023-02-17T01:32:19;101490.00;;;7.01;100.00
4767;BME280;2397;53.576;9.746;2023-02-17T01:34:45;101491.78;;;7.02;100.00
4767;BME280;2397;53.576;9.746;2023-02-17T01:37:14;101480.66;;;7.03;100.00
4767;BME280;2397;53.576;9.746;2023-02-17T01:39:40;101479.00;;;7.06;100.00
4767;BME280;2397;53.576;9.746;2023-02-17T01:42:14;101478.16;;;7.05;100.00
4767;BME280;2397;53.576;9.746;2023-02-17T01:47:48;101473.94;;;7.07;100.00
4767;BME280;2397;53.576;9.746;2023-02-17T01:50:17;101460.25;;;7.08;100.00
4767;BME280;2397;53.576;9.746;2023-02-17T01:52:45;101447.53;;;7.13;100.00
4767;BME280;2397;53.576;9.746;2023-02-17T01:55:15;101450.25;;;7.16;100.00
4767;BME280;2397;53.576;9.746;2023-02-17T01:57:43;101448.59;;;7.18;100.00
4767;BME280;2397;53.576;9.746;2023-02-17T02:00:12;101448.69;;;7.19;100.00
4767;BME280;2397;53.576;9.746;2023-02-17T02:02:40;101441.72;;;7.17;100.00
4767;BME280;2397;53.576;9.746;2023-02-17T02:05:08;101437.47;;;7.19;100.00
4767;BME280;2397;53.576;9.746;2023-02-17T02:07:38;101431.53;;;7.20;100.00
4767;BME280;2397;53.576;9.746;2023-02-17T02:10:06;101423.00;;;7.21;100.00
4767;BME280;2397;53.576;9.746;2023-02-17T02:12:37;101414.41;;;7.22;100.00
4767;BME280;2397;53.576;9.746;2023-02-17T02:15:08;101413.72;;;7.26;100.00
4767;BME280;2397;53.576;9.746;2023-02-17T02:17:46;101404.28;;;7.27;100.00
4767;BME280;2397;53.576;9.746;2023-02-17T02:20:31;101402.56;;;7.26;100.00
4767;BME280;2397;53.576;9.746;2023-02-17T02:26:29;101396.69;;;7.30;100.00
4767;BME280;2397;53.576;9.746;2023-02-17T02:29:33;101389.84;;;7.30;100.00
4767;BME280;2397;53.576;9.746;2023-02-17T02:35:04;101385.72;;;7.35;100.00
4767;BME280;2397;53.576;9.746;2023-02-17T02:37:42;101384.81;;;7.33;100.00
4767;BME280;2397;53.576;9.746;2023-02-17T02:40:14;101386.56;;;7.34;100.00
4767;BME280;2397;53.576;9.746;2023-02-17T02:42:43;101386.63;;;7.36;100.00
4767;BME280;2397;53.576;9.746;2023-02-17T02:45:10;101392.53;;;7.33;100.00
4767;BME280;2397;53.576;9.746;2023-02-17T02:47:51;101381.66;;;7.41;100.00
4767;BME280;2397;53.576;9.746;2023-02-17T02:50:32;101378.13;;;7.38;100.00
4767;BME280;2397;53.576;9.746;2023-02-17T02:56:01;101365.44;;;7.43;100.00
4767;BME280;2397;53.576;9.746;2023-02-17T03:01:55;101360.28;;;7.43;100.00
4767;BME280;2397;53.576;9.746;2023-02-17T03:04:32;101362.91;;;7.45;100.00
4767;BME280;2397;53.576;9.746;2023-02-17T03:07:24;101363.03;;;7.48;100.00
4767;BME280;2397;53.576;9.746;2023-02-17T03:09:53;101359.59;;;7.49;100.00
4767;BME280;2397;53.576;9.746;2023-02-17T03:12:21;101356.22;;;7.50;100.00
4767;BME280;2397;53.576;9.746;2023-02-17T03:14:51;101340.69;;;7.48;100.00
4767;BME280;2397;53.576;9.746;2023-02-17T03:17:19;101337.38;;;7.51;100.00
4767;BME280;2397;53.576;9.746;2023-02-17T03:19:45;101332.22;;;7.51;100.00
4767;BME280;2397;53.576;9.746;2023-02-17T03:22:30;101327.94;;;7.51;100.00
4767;BME280;2397;53.576;9.746;2023-02-17T03:24:58;101332.22;;;7.51;100.00
4767;BME280;2397;53.576;9.746;2023-02-17T03:27:26;101337.38;;;7.51;100.00
4767;BME280;2397;53.576;9.746;2023-02-17T03:29:53;101336.47;;;7.50;100.00
4767;BME280;2397;53.576;9.746;2023-02-17T03:32:20;101329.03;;;7.58;100.00
4767;BME280;2397;53.576;9.746;2023-02-17T03:34:46;101325.41;;;7.53;100.00
4767;BME280;2397;53.576;9.746;2023-02-17T03:37:13;101323.03;;;7.59;100.00
4767;BME280;2397;53.576;9.746;2023-02-17T03:39:39;101319.69;;;7.62;100.00
4767;BME280;2397;53.576;9.746;2023-02-17T03:42:06;101317.13;;;7.62;100.00
4767;BME280;2397;53.576;9.746;2023-02-17T03:44:32;101323.19;;;7.64;100.00
4767;BME280;2397;53.576;9.746;2023-02-17T03:46:59;101321.47;;;7.63;100.00
4767;BME280;2397;53.576;9.746;2023-02-17T03:49:25;101324.03;;;7.63;100.00
4767;BME280;2397;53.576;9.746;2023-02-17T03:51:52;101320.66;;;7.65;100.00
4767;BME280;2397;53.576;9.746;2023-02-17T03:54:18;101301.75;;;7.65;100.00
4767;BME280;2397;53.576;9.746;2023-02-17T03:56:44;101309.44;;;7.63;100.00
4767;BME280;2397;53.576;9.746;2023-02-17T03:59:11;101296.66;;;7.66;100.00
4767;BME280;2397;53.576;9.746;2023-02-17T04:01:37;101287.16;;;7.65;100.00
4767;BME280;2397;53.576;9.746;2023-02-17T04:04:04;101288.97;;;7.68;100.00
4767;BME280;2397;53.576;9.746;2023-02-17T04:06:31;101293.28;;;7.67;100.00
4767;BME280;2397;53.576;9.746;2023-02-17T04:08:57;101286.47;;;7.69;100.00
4767;BME280;2397;53.576;9.746;2023-02-17T04:11:24;101275.44;;;7.73;100.00
4767;BME280;2397;53.576;9.746;2023-02-17T04:13:50;101277.97;;;7.72;100.00
4767;BME280;2397;53.576;9.746;2023-02-17T04:16:17;101275.53;;;7.77;100.00
4767;BME280;2397;53.576;9.746;2023-02-17T04:18:43;101278.22;;;7.80;100.00
4767;BME280;2397;53.576;9.746;2023-02-17T04:21:10;101277.34;;;7.79;100.00
4767;BME280;2397;53.576;9.746;2023-02-17T04:23:36;101279.97;;;7.81;100.00
4767;BME280;2397;53.576;9.746;2023-02-17T04:26:05;101274.81;;;7.81;100.00
4767;BME280;2397;53.576;9.746;2023-02-17T04:28:33;101280.06;;;7.84;100.00
4767;BME280;2397;53.576;9.746;2023-02-17T04:30:59;101278.31;;;7.83;100.00
4767;BME280;2397;53.576;9.746;2023-02-17T04:33:26;101279.16;;;7.82;100.00
4767;BME280;2397;53.576;9.746;2023-02-17T04:35:52;101269.91;;;7.88;100.00
4767;BME280;2397;53.576;9.746;2023-02-17T04:38:28;101274.31;;;7.91;100.00
4767;BME280;2397;53.576;9.746;2023-02-17T04:40:56;101273.34;;;7.89;100.00
4767;BME280;2397;53.576;9.746;2023-02-17T04:43:24;101275.13;;;7.90;100.00
4767;BME280;2397;53.576;9.746;2023-02-17T04:45:51;101263.84;;;7.86;100.00
4767;BME280;2397;53.576;9.746;2023-02-17T04:48:18;101264.72;;;7.87;100.00
4767;BME280;2397;53.576;9.746;2023-02-17T04:50:45;101257.97;;;7.90;100.00
4767;BME280;2397;53.576;9.746;2023-02-17T04:53:12;101254.44;;;7.88;100.00
4767;BME280;2397;53.576;9.746;2023-02-17T04:55:39;101251.09;;;7.91;100.00
4767;BME280;2397;53.576;9.746;2023-02-17T04:58:07;101251.19;;;7.94;100.00
4767;BME280;2397;53.576;9.746;2023-02-17T05:00:34;101251.28;;;7.97;100.00
4767;BME280;2397;53.576;9.746;2023-02-17T05:03:01;101254.88;;;8.02;100.00
4767;BME280;2397;53.576;9.746;2023-02-17T05:05:27;101249.72;;;8.02;100.00
4767;BME280;2397;53.576;9.746;2023-02-17T05:07:53;101242.13;;;8.05;100.00
4767;BME280;2397;53.576;9.746;2023-02-17T05:10:20;101229.22;;;8.05;100.00
4767;BME280;2397;53.576;9.746;2023-02-17T05:12:49;101224.94;;;8.06;100.00
4767;BME280;2397;53.576;9.746;2023-02-17T05:15:15;101224.03;;;8.04;100.00
4767;BME280;2397;53.576;9.746;2023-02-17T05:17:41;101212.00;;;8.04;100.00
4767;BME280;2397;53.576;9.746;2023-02-17T05:20:08;101223.25;;;8.08;100.00
4767;BME280;2397;53.576;9.746;2023-02-17T05:22:35;101224.16;;;8.08;100.00
4767;BME280;2397;53.576;9.746;2023-02-17T05:25:02;101205.19;;;8.06;100.00
4767;BME280;2397;53.576;9.746;2023-02-17T05:27:28;101212.09;;;8.07;100.00
4767;BME280;2397;53.576;9.746;2023-02-17T05:29:56;101204.22;;;8.03;100.00
4767;BME280;2397;53.576;9.746;2023-02-17T05:32:22;101207.66;;;8.03;100.00
4767;BME280;2397;53.576;9.746;2023-02-17T05:34:49;101199.94;;;8.03;100.00
4767;BME280;2397;53.576;9.746;2023-02-17T05:37:15;101193.22;;;8.08;100.00
4767;BME280;2397;53.576;9.746;2023-02-17T05:39:42;101188.84;;;8.06;100.00
4767;BME280;2397;53.576;9.746;2023-02-17T05:42:08;101189.69;;;8.06;100.00
4767;BME280;2397;53.576;9.746;2023-02-17T05:44:34;101174.22;;;8.06;100.00
4767;BME280;2397;53.576;9.746;2023-02-17T05:47:01;101173.41;;;8.07;100.00
4767;BME280;2397;53.576;9.746;2023-02-17T05:49:28;101165.78;;;8.11;100.00
4767;BME280;2397;53.576;9.746;2023-02-17T05:51:54;101171.69;;;8.08;100.00
4767;BME280;2397;53.576;9.746;2023-02-17T05:54:20;101172.50;;;8.05;100.00
4767;BME280;2397;53.576;9.746;2023-02-17T05:56:47;101172.50;;;8.05;100.00
4767;BME280;2397;53.576;9.746;2023-02-17T05:59:13;101168.31;;;8.09;100.00
4767;BME280;2397;53.576;9.746;2023-02-17T06:01:39;101176.03;;;8.09;100.00
4767;BME280;2397;53.576;9.746;2023-02-17T06:04:06;101165.78;;;8.11;100.00
4767;BME280;2397;53.576;9.746;2023-02-17T06:06:32;101165.84;;;8.14;100.00
4767;BME280;2397;53.576;9.746;2023-02-17T06:08:59;101170.09;;;8.12;100.00
4767;BME280;2397;53.576;9.746;2023-02-17T06:11:25;101166.69;;;8.13;100.00
4767;BME280;2397;53.576;9.746;2023-02-17T06:13:52;101155.50;;;8.12;100.00
4767;BME280;2397;53.576;9.746;2023-02-17T06:16:18;101146.91;;;8.12;100.00
4767;BME280;2397;53.576;9.746;2023-02-17T06:18:44;101137.53;;;8.15;100.00
4767;BME280;2397;53.576;9.746;2023-02-17T06:21:11;101138.44;;;8.16;100.00
4767;BME280;2397;53.576;9.746;2023-02-17T06:23:37;101131.44;;;8.12;100.00
4767;BME280;2397;53.576;9.746;2023-02-17T06:26:04;101128.91;;;8.13;100.00
4767;BME280;2397;53.576;9.746;2023-02-17T06:28:30;101123.75;;;8.13;100.00
4767;BME280;2397;53.576;9.746;2023-02-17T06:31:00;101115.16;;;8.14;100.00
4767;BME280;2397;53.576;9.746;2023-02-17T06:33:26;101115.97;;;8.12;100.00
4767;BME280;2397;53.576;9.746;2023-02-17T06:35:52;101105.66;;;8.12;100.00
4767;BME280;2397;53.576;9.746;2023-02-17T06:38:19;101097.81;;;8.08;100.00
4767;BME280;2397;53.576;9.746;2023-02-17T06:40:45;101097.91;;;8.12;100.00
4767;BME280;2397;53.576;9.746;2023-02-17T06:43:12;101095.25;;;8.08;100.00
4767;BME280;2397;53.576;9.746;2023-02-17T06:45:38;101088.41;;;8.11;100.00
4767;BME280;2397;53.576;9.746;2023-02-17T06:48:05;101092.75;;;8.12;100.00
4767;BME280;2397;53.576;9.746;2023-02-17T06:50:32;101079.88;;;8.12;100.00
4767;BME280;2397;53.576;9.746;2023-02-17T06:52:58;101078.19;;;8.14;100.00
4767;BME280;2397;53.576;9.746;2023-02-17T06:55:24;101079.13;;;8.16;100.00
4767;BME280;2397;53.576;9.746;2023-02-17T06:57:51;101077.41;;;8.16;100.00
4767;BME280;2397;53.576;9.746;2023-02-17T07:00:18;101060.34;;;8.21;100.00
4767;BME280;2397;53.576;9.746;2023-02-17T07:02:44;101060.34;;;8.21;100.00
4767;BME280;2397;53.576;9.746;2023-02-17T07:05:11;101054.34;;;8.21;100.00
4767;BME280;2397;53.576;9.746;2023-02-17T07:07:37;101056.09;;;8.22;100.00
4767;BME280;2397;53.576;9.746;2023-02-17T07:10:05;101051.88;;;8.25;100.00
4767;BME280;2397;53.576;9.746;2023-02-17T07:12:31;101060.31;;;8.20;100.00
4767;BME280;2397;53.576;9.746;2023-02-17T07:14:57;101064.69;;;8.22;100.00
4767;BME280;2397;53.576;9.746;2023-02-17T07:17:24;101056.16;;;8.25;100.00
4767;BME280;2397;53.576;9.746;2023-02-17T07:19:51;101064.66;;;8.21;100.00
4767;BME280;2397;53.576;9.746;2023-02-17T07:22:17;101060.25;;;8.18;100.00
4767;BME280;2397;53.576;9.746;2023-02-17T07:24:43;101074.06;;;8.19;100.00
4767;BME280;2397;53.576;9.746;2023-02-17T07:27:10;101059.41;;;8.18;100.00
4767;BME280;2397;53.576;9.746;2023-02-17T07:29:36;101056.03;;;8.20;100.00
4767;BME280;2397;53.576;9.746;2023-02-17T07:32:03;101060.31;;;8.20;100.00
4767;BME280;2397;53.576;9.746;2023-02-17T07:34:29;101049.16;;;8.21;100.00
4767;BME280;2397;53.576;9.746;2023-02-17T07:36:56;101050.94;;;8.22;100.00
4767;BME280;2397;53.576;9.746;2023-02-17T07:39:22;101054.38;;;8.22;100.00
4767;BME280;2397;53.576;9.746;2023-02-17T07:41:48;101049.25;;;8.24;100.00
4767;BME280;2397;53.576;9.746;2023-02-17T07:44:15;101043.34;;;8.28;100.00
4767;BME280;2397;53.576;9.746;2023-02-17T07:46:41;101060.59;;;8.29;100.00
4767;BME280;2397;53.576;9.746;2023-02-17T07:49:08;101041.59;;;8.27;100.00
4767;BME280;2397;53.576;9.746;2023-02-17T07:51:34;101046.88;;;8.32;100.00
4767;BME280;2397;53.576;9.746;2023-02-17T07:54:01;101040.78;;;8.28;100.00
4767;BME280;2397;53.576;9.746;2023-02-17T07:56:28;101040.00;;;8.31;100.00
4767;BME280;2397;53.576;9.746;2023-02-17T07:58:55;101018.56;;;8.33;100.00
4767;BME280;2397;53.576;9.746;2023-02-17T08:01:23;101008.97;;;8.27;100.00
4767;BME280;2397;53.576;9.746;2023-02-17T08:03:50;101013.16;;;8.24;100.00
4767;BME280;2397;53.576;9.746;2023-02-17T08:06:21;101006.22;;;8.23;100.00
4767;BME280;2397;53.576;9.746;2023-02-17T08:08:49;101036.31;;;8.22;100.00
4767;BME280;2397;53.576;9.746;2023-02-17T08:11:35;100999.34;;;8.22;100.00
4767;BME280;2397;53.576;9.746;2023-02-17T08:14:21;100987.34;;;8.24;100.00
4767;BME280;2397;53.576;9.746;2023-02-17T08:16:48;100975.22;;;8.20;100.00
4767;BME280;2397;53.576;9.746;2023-02-17T08:19:15;100972.72;;;8.23;100.00
4767;BME280;2397;53.576;9.746;2023-02-17T08:21:41;100973.66;;;8.25;100.00
4767;BME280;2397;53.576;9.746;2023-02-17T08:24:08;100957.28;;;8.24;100.00
4767;BME280;2397;53.576;9.746;2023-02-17T08:26:35;100971.88;;;8.24;100.00
4767;BME280;2397;53.576;9.746;2023-02-17T08:29:02;100970.13;;;8.23;100.00
4767;BME280;2397;53.576;9.746;2023-02-17T08:31:31;100959.81;;;8.23;100.00
4767;BME280;2397;53.576;9.746;2023-02-17T08:34:03;100970.06;;;8.20;100.00
4767;BME280;2397;53.576;9.746;2023-02-17T08:36:30;100965.72;;;8.17;100.00
4767;BME280;2397;53.576;9.746;2023-02-17T08:38:57;100969.97;;;8.17;100.00
4767;BME280;2397;53.576;9.746;2023-02-17T08:41:28;100959.81;;;8.23;100.00
4767;BME280;2397;53.576;9.746;2023-02-17T08:43:56;100981.25;;;8.20;100.00
4767;BME280;2397;53.576;9.746;2023-02-17T08:46:23;100959.81;;;8.23;100.00
4767;BME280;2397;53.576;9.746;2023-02-17T08:48:49;100964.91;;;8.20;100.00
4767;BME280;2397;53.576;9.746;2023-02-17T08:51:18;100964.91;;;8.20;100.00
4767;BME280;2397;53.576;9.746;2023-02-17T08:53:49;100966.56;;;8.18;100.00
4767;BME280;2397;53.576;9.746;2023-02-17T08:56:16;100964.06;;;8.21;100.00
4767;BME280;2397;53.576;9.746;2023-02-17T08:58:42;100969.22;;;8.21;100.00
4767;BME280;2397;53.576;9.746;2023-02-17T09:01:09;100974.44;;;8.22;100.00
4767;BME280;2397;53.576;9.746;2023-02-17T09:03:36;100979.59;;;8.22;100.00
4767;BME280;2397;53.576;9.746;2023-02-17T09:06:05;100966.66;;;8.21;100.00
4767;BME280;2397;53.576;9.746;2023-02-17T09:08:32;100953.00;;;8.25;100.00
4767;BME280;2397;53.576;9.746;2023-02-17T09:10:59;100966.66;;;8.21;100.00
4767;BME280;2397;53.576;9.746;2023-02-17T09:13:26;100958.13;;;8.23;100.00
4767;BME280;2397;53.576;9.746;2023-02-17T09:15:53;100952.97;;;8.23;100.00
4767;BME280;2397;53.576;9.746;2023-02-17T09:18:20;100955.56;;;8.23;100.00
4767;BME280;2397;53.576;9.746;2023-02-17T09:20:47;100952.06;;;8.23;100.00
4767;BME280;2397;53.576;9.746;2023-02-17T09:23:14;100936.59;;;8.23;100.00
4767;BME280;2397;53.576;9.746;2023-02-17T09:25:41;100932.34;;;8.23;100.00
4767;BME280;2397;53.576;9.746;2023-02-17T09:28:07;100936.59;;;8.23;100.00
4767;BME280;2397;53.576;9.746;2023-02-17T09:30:34;100923.91;;;8.29;100.00
4767;BME280;2397;53.576;9.746;2023-02-17T09:33:02;100929.91;;;8.30;100.00
4767;BME280;2397;53.576;9.746;2023-02-17T09:35:31;100924.78;;;8.31;100.00
4767;BME280;2397;53.576;9.746;2023-02-17T09:37:58;100924.78;;;8.31;100.00
4767;BME280;2397;53.576;9.746;2023-02-17T09:40:46;100919.69;;;8.33;100.00
4767;BME280;2397;53.576;9.746;2023-02-17T09:43:16;100903.38;;;8.34;100.00
4767;BME280;2397;53.576;9.746;2023-02-17T09:45:48;100898.97;;;8.30;100.00
4767;BME280;2397;53.576;9.746;2023-02-17T09:48:19;100894.72;;;8.32;100.00
4767;BME280;2397;53.576;9.746;2023-02-17T09:50:55;100902.47;;;8.33;100.00
4767;BME280;2397;53.576;9.746;2023-02-17T09:56:00;100912.06;;;8.37;100.00
4767;BME280;2397;53.576;9.746;2023-02-17T09:58:39;100906.88;;;8.37;100.00
4767;BME280;2397;53.576;9.746;2023-02-17T10:01:15;100923.34;;;8.41;100.00
4767;BME280;2397;53.576;9.746;2023-02-17T10:03:55;100923.22;;;8.38;100.00
4767;BME280;2397;53.576;9.746;2023-02-17T10:06:25;100916.50;;;8.43;100.00
4767;BME280;2397;53.576;9.746;2023-02-17T10:09:18;100916.69;;;8.49;100.00
4767;BME280;2397;53.576;9.746;2023-02-17T10:12:09;100933.09;;;8.51;100.00
4767;BME280;2397;53.576;9.746;2023-02-17T10:14:50;100931.47;;;8.56;100.00
4767;BME280;2397;53.576;9.746;2023-02-17T10:17:28;100933.34;;;8.62;100.00
4767;BME280;2397;53.576;9.746;2023-02-17T10:20:10;100943.66;;;8.62;100.00
4767;BME280;2397;53.576;9.746;2023-02-17T10:22:39;100959.06;;;8.59;100.00
4767;BME280;2397;53.576;9.746;2023-02-17T10:25:16;100947.94;;;8.61;100.00
4767;BME280;2397;53.576;9.746;2023-02-17T10:27:53;100935.00;;;8.60;100.00
4767;BME280;2397;53.576;9.746;2023-02-17T10:30:46;100944.59;;;8.66;100.00
4767;BME280;2397;53.576;9.746;2023-02-17T10:33:33;100940.28;;;8.65;100.00
4767;BME280;2397;53.576;9.746;2023-02-17T10:36:10;100941.13;;;8.64;100.00
4767;BME280;2397;53.576;9.746;2023-02-17T10:38:54;100926.72;;;8.73;100.00
4767;BME280;2397;53.576;9.746;2023-02-17T10:41:36;100927.59;;;8.74;100.00
4767;BME280;2397;53.576;9.746;2023-02-17T10:44:11;100912.09;;;8.72;100.00
4767;BME280;2397;53.576;9.746;2023-02-17T10:46:41;100918.97;;;8.73;100.00
4767;BME280;2397;53.576;9.746;2023-02-17T10:49:20;100918.22;;;8.77;100.00
4767;BME280;2397;53.576;9.746;2023-02-17T10:51:48;100911.38;;;8.78;100.00
4767;BME280;2397;53.576;9.746;2023-02-17T10:54:37;100902.75;;;8.79;100.00
4767;BME280;2397;53.576;9.746;2023-02-17T10:57:10;100892.47;;;8.81;100.00
4767;BME280;2397;53.576;9.746;2023-02-17T10:59:40;100882.13;;;8.79;100.00
4767;BME280;2397;53.576;9.746;2023-02-17T11:02:19;100895.00;;;8.79;100.00
4767;BME280;2397;53.576;9.746;2023-02-17T11:04:49;100886.38;;;8.77;100.00
4767;BME280;2397;53.576;9.746;2023-02-17T11:07:18;100896.78;;;8.80;100.00
4767;BME280;2397;53.576;9.746;2023-02-17T11:09:50;100900.22;;;8.81;100.00
4767;BME280;2397;53.576;9.746;2023-02-17T11:12:23;100886.50;;;8.83;100.00
4767;BME280;2397;53.576;9.746;2023-02-17T11:14:53;100900.41;;;8.88;100.00
4767;BME280;2397;53.576;9.746;2023-02-17T11:17:37;100896.16;;;8.90;100.00
4767;BME280;2397;53.576;9.746;2023-02-17T11:20:24;100897.88;;;8.90;100.00
4767;BME280;2397;53.576;9.746;2023-02-17T11:23:21;100891.84;;;8.91;100.00
4767;BME280;2397;53.576;9.746;2023-02-17T11:26:16;100889.25;;;8.91;100.00
4767;BME280;2397;53.576;9.746;2023-02-17T11:28:43;100886.75;;;8.94;100.00
4767;BME280;2397;53.576;9.746;2023-02-17T11:31:25;100878.25;;;8.98;100.00
4767;BME280;2397;53.576;9.746;2023-02-17T11:33:52;100883.47;;;9.01;100.00
4767;BME280;2397;53.576;9.746;2023-02-17T11:36:25;100890.31;;;8.99;100.00
4767;BME280;2397;53.576;9.746;2023-02-17T11:38:51;100880.84;;;9.00;100.00
4767;BME280;2397;53.576;9.746;2023-02-17T11:41:19;100877.41;;;8.99;100.00
4767;BME280;2397;53.576;9.746;2023-02-17T11:43:57;100866.28;;;9.02;100.00
4767;BME280;2397;53.576;9.746;2023-02-17T11:46:46;100863.78;;;9.05;100.00
4767;BME280;2397;53.576;9.746;2023-02-17T11:49:31;100870.63;;;9.04;100.00
4767;BME280;2397;53.576;9.746;2023-02-17T11:55:13;100862.91;;;9.06;100.00
4767;BME280;2397;53.576;9.746;2023-02-17T11:57:43;100860.44;;;9.10;100.00
4767;BME280;2397;53.576;9.746;2023-02-17T12:00:19;100860.28;;;9.04;100.00
4767;BME280;2397;53.576;9.746;2023-02-17T12:03:13;100873.22;;;9.04;100.00
4767;BME280;2397;53.576;9.746;2023-02-17T12:08:41;100865.47;;;9.04;100.00
4767;BME280;2397;53.576;9.746;2023-02-17T12:16:26;100863.88;;;9.09;100.00
4767;BME280;2397;53.576;9.746;2023-02-17T12:21:50;100864.00;;;9.16;100.00
4767;BME280;2397;53.576;9.746;2023-02-17T12:27:02;100854.56;;;9.18;100.00
4767;BME280;2397;53.576;9.746;2023-02-17T12:29:55;100853.72;;;9.19;100.00
4767;BME280;2397;53.576;9.746;2023-02-17T12:32:37;100851.16;;;9.20;100.00
4767;BME280;2397;53.576;9.746;2023-02-17T12:35:23;100848.56;;;9.19;100.00
4767;BME280;2397;53.576;9.746;2023-02-17T12:38:00;100849.38;;;9.18;100.00
4767;BME280;2397;53.576;9.746;2023-02-17T12:40:33;100874.34;;;9.17;100.00
4767;BME280;2397;53.576;9.746;2023-02-17T12:43:20;100857.13;;;9.18;100.00
4767;BME280;2397;53.576;9.746;2023-02-17T12:45:50;100864.13;;;9.22;100.00
4767;BME280;2397;53.576;9.746;2023-02-17T12:48:33;100860.69;;;9.23;100.00
4767;BME280;2397;53.576;9.746;2023-02-17T12:51:20;100858.19;;;9.26;100.00
4767;BME280;2397;53.576;9.746;2023-02-17T12:53:52;100870.19;;;9.22;100.00
4767;BME280;2397;53.576;9.746;2023-02-17T12:58:55;100877.94;;;9.24;100.00
4767;BME280;2397;53.576;9.746;2023-02-17T13:01:28;100878.72;;;9.20;100.00
4767;BME280;2397;53.576;9.746;2023-02-17T13:04:00;100885.56;;;9.19;100.00
4767;BME280;2397;53.576;9.746;2023-02-17T13:06:37;100867.63;;;9.24;100.00
4767;BME280;2397;53.576;9.746;2023-02-17T13:09:19;100878.81;;;9.24;100.00
4767;BME280;2397;53.576;9.746;2023-02-17T13:11:50;100858.16;;;9.24;100.00
4767;BME280;2397;53.576;9.746;2023-02-17T13:14:37;100871.91;;;9.23;100.00
4767;BME280;2397;53.576;9.746;2023-02-17T13:17:04;100880.50;;;9.22;100.00
4767;BME280;2397;53.576;9.746;2023-02-17T13:19:32;100881.41;;;9.24;100.00
4767;BME280;2397;53.576;9.746;2023-02-17T13:22:00;100889.94;;;9.22;100.00
4767;BME280;2397;53.576;9.746;2023-02-17T13:24:38;100873.59;;;9.21;100.00
4767;BME280;2397;53.576;9.746;2023-02-17T13:32:30;100876.59;;;9.43;100.00
4767;BME280;2397;53.576;9.746;2023-02-17T13:39:59;100851.72;;;9.46;100.00
4767;BME280;2397;53.576;9.746;2023-02-17T13:42:34;100859.47;;;9.46;100.00
4767;BME280;2397;53.576;9.746;2023-02-17T13:45:10;100849.88;;;9.41;100.00
4767;BME280;2397;53.576;9.746;2023-02-17T13:47:37;100863.66;;;9.41;100.00
4767;BME280;2397;53.576;9.746;2023-02-17T13:50:20;100874.03;;;9.44;100.00
4767;BME280;2397;53.576;9.746;2023-02-17T13:52:50;100890.47;;;9.46;100.00
4767;BME280;2397;53.576;9.746;2023-02-17T13:55:18;100889.69;;;9.51;100.00
4767;BME280;2397;53.576;9.746;2023-02-17T13:57:44;100898.47;;;9.59;100.00
4767;BME280;2397;53.576;9.746;2023-02-17T14:02:48;100876.19;;;9.65;100.00
4767;BME280;2397;53.576;9.746;2023-02-17T14:05:26;100896.00;;;9.66;100.00
4767;BME280;2397;53.576;9.746;2023-02-17T14:07:57;100891.72;;;9.65;100.00
4767;BME280;2397;53.576;9.746;2023-02-17T14:10:25;100881.47;;;9.70;100.00
4767;BME280;2397;53.576;9.746;2023-02-17T14:12:53;100894.56;;;9.79;100.00
4767;BME280;2397;53.576;9.746;2023-02-17T14:15:26;100888.50;;;9.77;100.00
4767;BME280;2397;53.576;9.746;2023-02-17T14:17:53;100891.13;;;9.80;100.00